• Join FlightAware (Why Join?)
  • Login
  • US Flag 
09:24PM EDT


 

Airport Tracker/Info


-or-


 

Live Flight TrackerFlight Track Log ✈ AWE3417 ✈ 02-Sep-2013 ✈ KSDF - KDCA

Flight Track Log - Related Links

Times and Time Zones

All times are in EDT time to prevent confusion due to time zone crossing. See the AWE3417 flight status page for this flight to view local times or setup timezone preferences in your user account.

Time Position Orientation Groundspeed Altitude Reporting Facility
EDT Latitude Longitude Course Direction KTS MPH feet Rate Location/Type
05:12PM 38.1500 -85.7167 103° East 159 183 2,000  Level Louisville TRACON
05:13PM 38.0792 -85.6256 135° Southeast 269 310 5,000 2,040 Climbing Indianapolis Center
05:14PM 38.0811 -85.5203 89° East 287 330 7,700 2,640 Climbing Indianapolis Center
05:15PM 38.0808 -85.4119 90° East 302 348 10,500 2,340 Climbing Indianapolis Center
05:16PM 38.1036 -85.2947 76° East 328 377 12,500 2,340 Climbing Indianapolis Center
05:17PM 38.0429 -85.1525 103° East  Level FlightAware Approximate
05:17PM 38.1458 -85.1761 66° East 348 400 15,300  Level Indianapolis Center
05:18PM 38.1953 -85.0356 66° East 371 427 18,000 2,460 Climbing Indianapolis Center
05:19PM 38.2331 -84.9094 69° East 381 438 20,400 2,100 Climbing Indianapolis Center
05:21PM 38.2689 -84.7786 71° East 389 448 22,400 1,920 Climbing Indianapolis Center
05:22PM 38.3078 -84.6411 70° East 408 470 24,400 1,740 Climbing Indianapolis Center
05:23PM 38.3486 -84.5019 69° East 416 479 26,000 1,500 Climbing Indianapolis Center
05:24PM 38.3897 -84.3564 70° East 433 498 27,600 1,440 Climbing Indianapolis Center
05:25PM 38.4308 -84.2094 70° East 438 504 29,000 1,320 Climbing Indianapolis Center
05:26PM 38.4678 -84.0272 75° East 452 520 30,400 1,080 Climbing Indianapolis Center
05:27PM 38.4964 -83.8681 77° East 459 528 31,300 1,080 Climbing Indianapolis Center
05:28PM 38.5269 -83.7114 76° East 457 526 32,700 1,020 Climbing Indianapolis Center
05:29PM 38.5597 -83.5519 75° East 460 529 33,500 780 Climbing Indianapolis Center
05:30PM 38.5642 -83.3861 88° East 474 545 34,400 720 Climbing Indianapolis Center
05:31PM 38.5428 -83.2250 100° East 463 533 35,000 240 Climbing Indianapolis Center
05:32PM 38.5225 -83.0636 99° East 460 529 35,000  Level Indianapolis Center
05:33PM 38.5014 -82.9058 100° East 452 520 35,000  Level Indianapolis Center
05:34PM 38.4781 -82.7219 99° East 451 519 35,000  Level Indianapolis Center
05:35PM 38.4569 -82.5661 100° East 445 512 35,000  Level Indianapolis Center
05:36PM 38.4383 -82.4214 99° East 447 514 35,000  Level Indianapolis Center
05:37PM 38.4172 -82.2636 100° East 450 518 35,000  Level Indianapolis Center
05:38PM 38.3969 -82.1067 99° East 452 520 35,000  Level Indianapolis Center
05:39PM 38.3706 -81.9200 100° East 449 517 35,000  Level Indianapolis Center
05:40PM 38.3511 -81.7631 99° East 452 520 35,000  Level Indianapolis Center
05:42PM 38.3392 -81.4419 93° East 458 527 35,000  Level Indianapolis Center
05:43PM 38.3342 -81.2822 92° East 458 527 35,000  Level Indianapolis Center
05:44PM 38.3275 -81.1206 93° East 461 531 35,000  Level Indianapolis Center
05:45PM 38.3208 -80.9239 92° East 465 535 35,000  Level Indianapolis Center
05:46PM 38.3156 -80.7589 92° East 468 539 35,000  Level Indianapolis Center
05:47PM 38.3297 -80.5950 84° East 468 539 35,000  Level Indianapolis Center
05:48PM 38.3400 -80.4972 82° East 459 528 35,000  Level Washington Center
05:49PM 38.3197 -80.3239 98° East 445 512 35,000  Level Washington Center
05:50PM 38.2497 -80.1978 125° Southeast 422 486 35,000  Level Washington Center
05:51PM 38.1833 -80.0772 125° Southeast 422 486 35,000  Level Washington Center
05:52PM 38.1297 -79.9422 117° Southeast 422 486 35,000 -180 Level Washington Center
05:53PM 38.1497 -79.7981 80° East 416 479 34,700 -1,560 Descending Washington Center
05:54PM 38.2169 -79.6592 58° Northeast 419 482 31,900 -2,280 Descending Washington Center
05:55PM 38.2900 -79.5308 54° Northeast 428 493 30,200 -1,740 Descending Washington Center
05:56PM 38.3608 -79.4075 54° Northeast 428 493 28,400 -1,620 Descending Washington Center
05:57PM 38.4319 -79.2628 58° Northeast 434 499 27,000 -1,080 Descending Washington Center
05:58PM 38.4572 -79.1156 78° East 427 491 26,300 -780 Descending Washington Center
05:59PM 38.4844 -78.9681 77° East 422 486 25,500 -780 Descending Washington Center
06:00PM 38.5028 -78.8336 80° East 416 479 24,800 -1,140 Descending Washington Center
06:01PM 38.5278 -78.6783 78° East 416 479 23,300 -1,620 Descending Washington Center
06:02PM 38.5500 -78.5411 78° East 406 467 21,700 -1,620 Descending Washington Center
06:03PM 38.5719 -78.4039 78° East 394 453 20,100 -1,620 Descending Washington Center
06:04PM 38.5939 -78.2719 78° East 389 448 18,500 -1,560 Descending Washington Center
06:05PM 38.6300 -78.1456 70° East 377 434 17,000 -1,560 Descending Washington Center
06:06PM 38.6700 -78.0219 67° East 372 428 15,400 -1,560 Descending Washington Center
06:07PM 38.7078 -77.9036 68° East 367 422 14,000 -1,440 Descending Washington Center
06:08PM 38.7514 -77.7983 62° Northeast 351 404 12,600 -1,380 Descending Washington Center
06:09PM 38.8069 -77.7203 48° Northeast 333 383 11,300 -1,440 Descending Washington Center
06:10PM 38.9000 -77.5833 49° Northeast 308 354 9,200 -1,440 Descending Potomac TRACON
06:11PM 38.9333 -77.5000 63° Northeast 302 348 7,900 -1,500 Descending Potomac TRACON
06:12PM 38.9500 -77.4000 78° East 284 327 6,300 -1,500 Descending Potomac TRACON
06:13PM 38.9667 -77.3000 78° East 277 319 4,900 -1,500 Descending Potomac TRACON
06:14PM 38.9667 -77.2167 90° East 257 296 3,500 -1,260 Descending Potomac TRACON
06:15PM 38.9500 -77.1500 108° East 210 242 2,600 -960 Descending Potomac TRACON
06:16PM 38.9167 -77.1000 131° Southeast 190 219 1,600 -900 Descending Potomac TRACON
06:17PM 38.8833 -77.0667 142° Southeast 139 160 800 -840 Descending Potomac TRACON
06:19PM 38.8500 -77.0333 North  Level FlightAware Approximate
06:26PM 38.8519 -77.0377 North  Level Estimated
06:27PM 38.8500 -77.0333 North  Level FlightAware Approximate
06:28PM 38.8519 -77.0377 North  Level Estimated
06:29PM 38.8500 -77.0333 North  Level FlightAware Approximate